sensor_id;sensor_type;location;lat;lon;timestamp;P1;durP1;ratioP1;P2;durP2;ratioP2
29344;SDS011;16339;48.748;2.222;2023-07-29T01:50:48;2.75;;;1.77;;
29344;SDS011;16339;48.748;2.222;2023-07-29T02:06:25;7.60;;;1.70;;
29344;SDS011;16339;48.748;2.222;2023-07-29T02:12:18;4.03;;;1.70;;
29344;SDS011;16339;48.748;2.222;2023-07-29T02:14:48;6.20;;;1.80;;
29344;SDS011;16339;48.748;2.222;2023-07-29T02:17:19;3.65;;;1.50;;
29344;SDS011;16339;48.748;2.222;2023-07-29T02:19:51;2.25;;;1.60;;
29344;SDS011;16339;48.748;2.222;2023-07-29T02:22:25;3.78;;;1.55;;
29344;SDS011;16339;48.748;2.222;2023-07-29T02:24:55;6.13;;;1.83;;
29344;SDS011;16339;48.748;2.222;2023-07-29T02:27:27;4.13;;;1.67;;
29344;SDS011;16339;48.748;2.222;2023-07-29T02:29:58;4.75;;;1.50;;
29344;SDS011;16339;48.748;2.222;2023-07-29T03:23:01;5.50;;;2.35;;
29344;SDS011;16339;48.748;2.222;2023-07-29T03:46:58;10.15;;;2.50;;
29344;SDS011;16339;48.748;2.222;2023-07-29T04:13:54;8.47;;;2.20;;
29344;SDS011;16339;48.748;2.222;2023-07-29T04:19:56;2.28;;;2.05;;
29344;SDS011;16339;48.748;2.222;2023-07-29T04:28:33;2.65;;;1.80;;
29344;SDS011;16339;48.748;2.222;2023-07-29T04:31:11;3.00;;;1.85;;
29344;SDS011;16339;48.748;2.222;2023-07-29T04:34:02;1.80;;;1.70;;
29344;SDS011;16339;48.748;2.222;2023-07-29T04:47:56;3.40;;;1.70;;
29344;SDS011;16339;48.748;2.222;2023-07-29T04:57:40;2.22;;;1.75;;
29344;SDS011;16339;48.748;2.222;2023-07-29T05:00:45;15.80;;;2.10;;
29344;SDS011;16339;48.748;2.222;2023-07-29T05:03:44;5.20;;;1.73;;
29344;SDS011;16339;48.748;2.222;2023-07-29T05:06:13;2.55;;;2.03;;
29344;SDS011;16339;48.748;2.222;2023-07-29T05:08:42;3.08;;;1.90;;
29344;SDS011;16339;48.748;2.222;2023-07-29T05:11:12;2.83;;;1.83;;
29344;SDS011;16339;48.748;2.222;2023-07-29T05:13:44;2.40;;;1.80;;
29344;SDS011;16339;48.748;2.222;2023-07-29T06:27:55;1.38;;;0.60;;
29344;SDS011;16339;48.748;2.222;2023-07-29T06:30:33;0.77;;;0.77;;
29344;SDS011;16339;48.748;2.222;2023-07-29T06:33:06;0.95;;;0.95;;
29344;SDS011;16339;48.748;2.222;2023-07-29T06:35:38;0.90;;;0.80;;
29344;SDS011;16339;48.748;2.222;2023-07-29T06:38:48;5.78;;;1.00;;
29344;SDS011;16339;48.748;2.222;2023-07-29T06:41:26;1.20;;;1.05;;
29344;SDS011;16339;48.748;2.222;2023-07-29T06:44:17;1.50;;;0.98;;
29344;SDS011;16339;48.748;2.222;2023-07-29T06:47:11;1.17;;;0.82;;
29344;SDS011;16339;48.748;2.222;2023-07-29T06:50:08;3.33;;;1.10;;
29344;SDS011;16339;48.748;2.222;2023-07-29T06:53:00;1.42;;;0.80;;
29344;SDS011;16339;48.748;2.222;2023-07-29T06:56:02;1.42;;;1.20;;
29344;SDS011;16339;48.748;2.222;2023-07-29T06:59:03;4.22;;;0.90;;
29344;SDS011;16339;48.748;2.222;2023-07-29T07:01:40;0.75;;;0.75;;
29344;SDS011;16339;48.748;2.222;2023-07-29T07:04:13;0.95;;;0.80;;
29344;SDS011;16339;48.748;2.222;2023-07-29T07:06:57;0.80;;;0.80;;
29344;SDS011;16339;48.748;2.222;2023-07-29T07:34:37;1.90;;;0.88;;
29344;SDS011;16339;48.748;2.222;2023-07-29T07:37:09;1.33;;;1.08;;
29344;SDS011;16339;48.748;2.222;2023-07-29T07:39:40;3.17;;;1.10;;
29344;SDS011;16339;48.748;2.222;2023-07-29T07:42:09;1.33;;;1.02;;
29344;SDS011;16339;48.748;2.222;2023-07-29T07:44:41;1.67;;;1.08;;
29344;SDS011;16339;48.748;2.222;2023-07-29T07:47:17;1.88;;;1.20;;
29344;SDS011;16339;48.748;2.222;2023-07-29T08:06:54;1.30;;;1.20;;
29344;SDS011;16339;48.748;2.222;2023-07-29T08:09:26;1.35;;;1.15;;
29344;SDS011;16339;48.748;2.222;2023-07-29T08:12:12;2.92;;;1.30;;
29344;SDS011;16339;48.748;2.222;2023-07-29T08:33:30;1.23;;;1.13;;
29344;SDS011;16339;48.748;2.222;2023-07-29T08:38:57;2.85;;;1.50;;
29344;SDS011;16339;48.748;2.222;2023-07-29T08:41:29;1.20;;;1.10;;
29344;SDS011;16339;48.748;2.222;2023-07-29T08:44:06;1.02;;;1.02;;
29344;SDS011;16339;48.748;2.222;2023-07-29T08:46:47;1.17;;;1.10;;
29344;SDS011;16339;48.748;2.222;2023-07-29T08:52:13;1.50;;;1.20;;
29344;SDS011;16339;48.748;2.222;2023-07-29T08:54:57;3.40;;;1.30;;
29344;SDS011;16339;48.748;2.222;2023-07-29T09:00:55;6.05;;;1.30;;
29344;SDS011;16339;48.748;2.222;2023-07-29T09:03:30;3.08;;;1.42;;
29344;SDS011;16339;48.748;2.222;2023-07-29T09:05:59;1.70;;;1.60;;
29344;SDS011;16339;48.748;2.222;2023-07-29T09:08:42;1.48;;;1.33;;
29344;SDS011;16339;48.748;2.222;2023-07-29T09:11:19;9.25;;;1.55;;
29344;SDS011;16339;48.748;2.222;2023-07-29T09:13:55;4.82;;;1.70;;
29344;SDS011;16339;48.748;2.222;2023-07-29T09:19:27;2.13;;;1.80;;
29344;SDS011;16339;48.748;2.222;2023-07-29T09:21:56;1.58;;;1.48;;
29344;SDS011;16339;48.748;2.222;2023-07-29T09:24:25;2.45;;;1.77;;
29344;SDS011;16339;48.748;2.222;2023-07-29T09:27:09;1.73;;;1.55;;
29344;SDS011;16339;48.748;2.222;2023-07-29T09:29:54;1.88;;;1.70;;
29344;SDS011;16339;48.748;2.222;2023-07-29T09:39:27;2.05;;;1.83;;
29344;SDS011;16339;48.748;2.222;2023-07-29T09:55:07;2.67;;;1.92;;
29344;SDS011;16339;48.748;2.222;2023-07-29T10:07:51;2.97;;;2.22;;
29344;SDS011;16339;48.748;2.222;2023-07-29T10:10:43;3.00;;;2.22;;
29344;SDS011;16339;48.748;2.222;2023-07-29T12:13:55;2.17;;;1.80;;
29344;SDS011;16339;48.748;2.222;2023-07-29T12:16:24;5.32;;;1.92;;
29344;SDS011;16339;48.748;2.222;2023-07-29T12:19:07;5.65;;;2.05;;
29344;SDS011;16339;48.748;2.222;2023-07-29T12:21:45;5.50;;;2.20;;
29344;SDS011;16339;48.748;2.222;2023-07-29T12:24:14;2.58;;;1.77;;
29344;SDS011;16339;48.748;2.222;2023-07-29T12:26:48;13.75;;;1.95;;
29344;SDS011;16339;48.748;2.222;2023-07-29T12:29:18;6.70;;;1.80;;
29344;SDS011;16339;48.748;2.222;2023-07-29T12:31:47;2.70;;;1.80;;
29344;SDS011;16339;48.748;2.222;2023-07-29T12:34:18;2.17;;;1.65;;
29344;SDS011;16339;48.748;2.222;2023-07-29T12:36:48;3.42;;;1.90;;
29344;SDS011;16339;48.748;2.222;2023-07-29T12:39:19;2.53;;;1.60;;
29344;SDS011;16339;48.748;2.222;2023-07-29T12:41:54;1.67;;;1.45;;
29344;SDS011;16339;48.748;2.222;2023-07-29T12:44:29;1.98;;;1.60;;
29344;SDS011;16339;48.748;2.222;2023-07-29T12:47:08;3.45;;;1.50;;
29344;SDS011;16339;48.748;2.222;2023-07-29T12:49:54;4.90;;;1.60;;
29344;SDS011;16339;48.748;2.222;2023-07-29T12:52:26;2.65;;;1.58;;
29344;SDS011;16339;48.748;2.222;2023-07-29T12:54:55;2.33;;;1.38;;
29344;SDS011;16339;48.748;2.222;2023-07-29T13:00:37;5.65;;;1.60;;
29344;SDS011;16339;48.748;2.222;2023-07-29T13:03:06;1.42;;;1.30;;
29344;SDS011;16339;48.748;2.222;2023-07-29T13:05:35;2.55;;;1.30;;
29344;SDS011;16339;48.748;2.222;2023-07-29T13:08:03;5.53;;;1.33;;
29344;SDS011;16339;48.748;2.222;2023-07-29T13:10:32;1.30;;;1.20;;
29344;SDS011;16339;48.748;2.222;2023-07-29T13:13:01;1.50;;;1.40;;
29344;SDS011;16339;48.748;2.222;2023-07-29T13:15:30;5.95;;;1.63;;
29344;SDS011;16339;48.748;2.222;2023-07-29T13:18:01;3.00;;;1.73;;
29344;SDS011;16339;48.748;2.222;2023-07-29T13:20:32;3.88;;;1.30;;
29344;SDS011;16339;48.748;2.222;2023-07-29T13:23:02;2.03;;;1.63;;
29344;SDS011;16339;48.748;2.222;2023-07-29T13:25:31;2.05;;;1.45;;
29344;SDS011;16339;48.748;2.222;2023-07-29T13:28:00;2.47;;;1.50;;
29344;SDS011;16339;48.748;2.222;2023-07-29T13:30:29;1.60;;;1.30;;
29344;SDS011;16339;48.748;2.222;2023-07-29T13:33:01;3.22;;;1.38;;
29344;SDS011;16339;48.748;2.222;2023-07-29T13:35:30;2.75;;;1.15;;
29344;SDS011;16339;48.748;2.222;2023-07-29T13:37:59;2.47;;;1.40;;
29344;SDS011;16339;48.748;2.222;2023-07-29T13:40:28;1.38;;;1.25;;
29344;SDS011;16339;48.748;2.222;2023-07-29T13:42:59;1.63;;;1.33;;
29344;SDS011;16339;48.748;2.222;2023-07-29T13:45:28;2.05;;;1.42;;
29344;SDS011;16339;48.748;2.222;2023-07-29T13:47:56;1.95;;;1.30;;
29344;SDS011;16339;48.748;2.222;2023-07-29T13:50:28;2.67;;;1.13;;
29344;SDS011;16339;48.748;2.222;2023-07-29T13:52:57;1.77;;;1.38;;
29344;SDS011;16339;48.748;2.222;2023-07-29T13:55:25;1.67;;;1.42;;
29344;SDS011;16339;48.748;2.222;2023-07-29T13:57:54;2.55;;;1.60;;
29344;SDS011;16339;48.748;2.222;2023-07-29T14:00:23;1.58;;;1.30;;
29344;SDS011;16339;48.748;2.222;2023-07-29T14:02:54;1.63;;;1.27;;
29344;SDS011;16339;48.748;2.222;2023-07-29T14:05:23;4.18;;;1.50;;
29344;SDS011;16339;48.748;2.222;2023-07-29T14:07:54;5.47;;;1.30;;
29344;SDS011;16339;48.748;2.222;2023-07-29T14:10:23;2.38;;;1.20;;
29344;SDS011;16339;48.748;2.222;2023-07-29T14:12:53;2.15;;;1.40;;
29344;SDS011;16339;48.748;2.222;2023-07-29T14:15:21;1.50;;;1.40;;
29344;SDS011;16339;48.748;2.222;2023-07-29T14:17:50;2.35;;;1.52;;
29344;SDS011;16339;48.748;2.222;2023-07-29T14:20:19;5.03;;;1.42;;
29344;SDS011;16339;48.748;2.222;2023-07-29T14:22:49;3.55;;;1.50;;
29344;SDS011;16339;48.748;2.222;2023-07-29T14:25:20;6.63;;;1.58;;
29344;SDS011;16339;48.748;2.222;2023-07-29T14:27:50;4.32;;;1.58;;
29344;SDS011;16339;48.748;2.222;2023-07-29T14:30:19;3.55;;;1.30;;
29344;SDS011;16339;48.748;2.222;2023-07-29T14:32:49;1.95;;;1.60;;
29344;SDS011;16339;48.748;2.222;2023-07-29T14:35:19;6.28;;;1.33;;
29344;SDS011;16339;48.748;2.222;2023-07-29T14:37:50;2.08;;;1.25;;
29344;SDS011;16339;48.748;2.222;2023-07-29T14:40:22;1.55;;;1.33;;
29344;SDS011;16339;48.748;2.222;2023-07-29T14:42:52;2.50;;;1.08;;
29344;SDS011;16339;48.748;2.222;2023-07-29T14:45:21;1.05;;;0.93;;
29344;SDS011;16339;48.748;2.222;2023-07-29T14:47:49;1.35;;;1.05;;
29344;SDS011;16339;48.748;2.222;2023-07-29T14:50:18;2.75;;;1.40;;
29344;SDS011;16339;48.748;2.222;2023-07-29T14:52:47;1.35;;;0.98;;
29344;SDS011;16339;48.748;2.222;2023-07-29T14:55:16;1.20;;;1.00;;
29344;SDS011;16339;48.748;2.222;2023-07-29T14:57:48;4.75;;;1.13;;
29344;SDS011;16339;48.748;2.222;2023-07-29T15:00:17;3.03;;;1.13;;
29344;SDS011;16339;48.748;2.222;2023-07-29T15:02:46;1.75;;;1.05;;
29344;SDS011;16339;48.748;2.222;2023-07-29T15:05:15;1.58;;;1.10;;
29344;SDS011;16339;48.748;2.222;2023-07-29T15:07:44;0.88;;;0.88;;
29344;SDS011;16339;48.748;2.222;2023-07-29T15:12:58;2.28;;;1.25;;
29344;SDS011;16339;48.748;2.222;2023-07-29T15:15:29;3.83;;;1.30;;
29344;SDS011;16339;48.748;2.222;2023-07-29T15:17:58;4.13;;;1.20;;
29344;SDS011;16339;48.748;2.222;2023-07-29T15:20:27;1.77;;;1.20;;
29344;SDS011;16339;48.748;2.222;2023-07-29T15:22:56;1.63;;;1.20;;
29344;SDS011;16339;48.748;2.222;2023-07-29T15:25:24;5.28;;;1.42;;
29344;SDS011;16339;48.748;2.222;2023-07-29T15:27:53;2.15;;;1.30;;
29344;SDS011;16339;48.748;2.222;2023-07-29T15:30:26;1.63;;;1.20;;
29344;SDS011;16339;48.748;2.222;2023-07-29T15:32:54;8.15;;;1.70;;
29344;SDS011;16339;48.748;2.222;2023-07-29T17:31:32;4.53;;;2.20;;
29344;SDS011;16339;48.748;2.222;2023-07-29T17:34:04;3.75;;;2.13;;
29344;SDS011;16339;48.748;2.222;2023-07-29T17:37:07;2.63;;;1.95;;
29344;SDS011;16339;48.748;2.222;2023-07-29T17:39:47;3.05;;;2.20;;
29344;SDS011;16339;48.748;2.222;2023-07-29T17:42:17;3.75;;;2.05;;
29344;SDS011;16339;48.748;2.222;2023-07-29T17:44:48;4.90;;;1.90;;
29344;SDS011;16339;48.748;2.222;2023-07-29T17:47:17;2.70;;;1.92;;
29344;SDS011;16339;48.748;2.222;2023-07-29T17:49:49;4.78;;;2.15;;
29344;SDS011;16339;48.748;2.222;2023-07-29T17:52:20;6.67;;;2.33;;
29344;SDS011;16339;48.748;2.222;2023-07-29T17:54:51;3.53;;;2.00;;
29344;SDS011;16339;48.748;2.222;2023-07-29T17:57:20;3.78;;;2.30;;
29344;SDS011;16339;48.748;2.222;2023-07-29T17:59:55;4.03;;;2.20;;
29344;SDS011;16339;48.748;2.222;2023-07-29T18:02:24;2.90;;;2.03;;
29344;SDS011;16339;48.748;2.222;2023-07-29T18:08:13;2.85;;;2.25;;
29344;SDS011;16339;48.748;2.222;2023-07-29T18:11:03;4.20;;;2.08;;
29344;SDS011;16339;48.748;2.222;2023-07-29T18:17:21;5.30;;;2.35;;
29344;SDS011;16339;48.748;2.222;2023-07-29T18:23:24;4.80;;;2.15;;
29344;SDS011;16339;48.748;2.222;2023-07-29T18:26:43;4.03;;;2.25;;
29344;SDS011;16339;48.748;2.222;2023-07-29T19:44:38;5.30;;;2.40;;
29344;SDS011;16339;48.748;2.222;2023-07-29T20:01:31;13.27;;;3.97;;
29344;SDS011;16339;48.748;2.222;2023-07-29T20:04:32;7.53;;;2.67;;
29344;SDS011;16339;48.748;2.222;2023-07-29T20:37:28;4.67;;;2.83;;
29344;SDS011;16339;48.748;2.222;2023-07-29T20:40:47;5.43;;;2.80;;
29344;SDS011;16339;48.748;2.222;2023-07-29T21:26:55;6.93;;;2.60;;
29344;SDS011;16339;48.748;2.222;2023-07-29T21:59:46;15.80;;;6.80;;
29344;SDS011;16339;48.748;2.222;2023-07-29T22:02:38;13.45;;;6.35;;
29344;SDS011;16339;48.748;2.222;2023-07-29T22:05:26;14.35;;;6.70;;
29344;SDS011;16339;48.748;2.222;2023-07-29T22:08:06;15.40;;;6.45;;
29344;SDS011;16339;48.748;2.222;2023-07-29T22:13:52;21.88;;;6.70;;
29344;SDS011;16339;48.748;2.222;2023-07-29T22:19:28;12.38;;;5.47;;
29344;SDS011;16339;48.748;2.222;2023-07-29T22:25:31;13.10;;;4.90;;
29344;SDS011;16339;48.748;2.222;2023-07-29T22:28:04;12.77;;;4.75;;
29344;SDS011;16339;48.748;2.222;2023-07-29T22:31:05;14.20;;;4.82;;
29344;SDS011;16339;48.748;2.222;2023-07-29T22:36:34;14.98;;;4.68;;
